Neath, United Kingdom
Current Conditions -  °F | °C
As of 10:50 AM on Monday 22 Dec 2014 (Local Time) from EGDX Reporting Station
Broken Clouds Broken Clouds  
Wind Chill: 54°   Ceiling: 1400
Heat Index: 54°   Visibility: 6mi
Dew Point: 48°   Wind: 25mph
Humidity: 82%   Direction: 250°WSW
Pressure: 30.09"   Gusts: 37mph
Location:  51.66°N, 3.8°W
Report Text: EGDX 221050Z AUTO 25022G32KT 9999 BKN014/// SCT018/// 12/09 Q1019
Loading
Personal Weather Stations






























Interactive Weather Map New forecast layout! Learn more

10-Day Weather Forecast

Advertisements
Track Severe Weather on mobile